Fremont, CA (94539)

5:26 PM PDT on April 25, 2015 (GMT -0700)
Mission Hollow | | Change Station
CLOSE
Current Station
Personal Weather Station
Location: Fremont, CA
Elevation: 301 ft
Nearby Weather Stations

Elev 301 ft 37.53 °N, 121.92 °W | Updated 24 seconds ago

Partly Cloudy
Partly Cloudy
66.2 °F
Feels Like 66.2 °F
N
4.7
Wind Variable Wind from NW
Gusts 5.4 mph

Today
High -- | Low -- °F
--% Chance of Precip.
Yesterday
High -- | Low -- °F
Precip. -- in
6:19 AM 7:52 PM
Waxing Crescent, 50% visible
Pressure 30.01 in
Visibility 10.0 miles
Clouds Clear
Dew Point 49 °F
Humidity 54%
Rainfall 0.00 in
Snow Depth Not available.
UV 4 out of 12
Pollen 4.70 out of 12
Air Quality Not available.
Flu Activity Sporadic
METAR KNUQ 252356Z 29008G15KT 10SM CLR 17/07 A3000 RMK AO2 SLP162 T01670067 10178 20150 53005

More Conditions Fewer Conditions

Pressure 30.01 in
Visibility 10.0 miles
Clouds Clear
Dew Point 49 °F
Humidity 54%
Rainfall 0.00 in
Snow Depth Not available.
UV 4 out of 12
Pollen 4.70 out of 12
Air Quality Not available.
Flu Activity Sporadic
METAR KNUQ 252356Z 29008G15KT 10SM CLR 17/07 A3000 RMK AO2 SLP162 T01670067 10178 20150 53005

More Conditions Fewer Conditions

10-Day Weather Forecast

Almanac

Astronomy

Apr. 25, 2015 Rise Set
Actual Time
Civil Twilight
Nautical Twilight
Astronomical Twilight
Moon
Length of Visible Light
Length of Day
Tomorrow will be .
, % of the Moon is Illuminated

Today's Extremes

State Highs State Lows

Community

WunderPhotos

Upload Photos

1,816,856 photos uploaded!

WunderBlogs® & News

Nearby

Air Quality

  Air Quality AQ Index Pollutant
Not available.

Snow Depth

Station Depth Elevation

Earthquake Activity

City Distance Mag. Time & Date
Minimum magnitude displayed is 2.5.

Coastal Water Temperatures

Place Temperature

Stations

Nearby Weather Stations

Station Location Temp. Windchill Dew Point Humidity Wind Precip. Elev Updated Type